Time;durP1;ratioP1;P1;durP2;ratioP2;P2;SDS_P1;SDS_P2;PMS_P1;PMS_P2;Temp;Humidity;BMP_temperature;BMP_pressure;BME280_temperature;BME280_humidity;BME280_pressure;Samples;Min_cycle;Max_cycle;Signal;HPM_P1;HPM_P2
2022/01/10 00:00:48;;;;;;;10.77;6.70;;;3.10;99.90;;;;;;5105296;28;20089;-59
2022/01/10 00:04:13;;;;;;;9.32;5.18;;;3.10;99.90;;;;;;5094402;28;20081;-60
2022/01/10 00:07:39;;;;;;;9.30;5.30;;;3.10;99.90;;;;;;5109059;28;20500;-60
2022/01/10 00:11:04;;;;;;;10.43;4.80;;;3.10;99.90;;;;;;5105145;28;20123;-60
2022/01/10 00:14:30;;;;;;;9.82;5.22;;;3.20;99.90;;;;;;5095899;28;20036;-60
2022/01/10 00:17:55;;;;;;;12.27;6.13;;;3.10;99.90;;;;;;5108643;28;20468;-60
2022/01/10 00:21:20;;;;;;;9.55;5.45;;;3.20;99.90;;;;;;5106297;28;20042;-60
2022/01/10 00:24:46;;;;;;;7.47;4.63;;;3.20;99.90;;;;;;5089661;28;20036;-60
2022/01/10 00:28:11;;;;;;;10.77;5.45;;;3.20;99.90;;;;;;5098133;28;20063;-60
2022/01/10 00:31:36;;;;;;;7.47;5.03;;;3.20;99.90;;;;;;5089976;28;20082;-60
2022/01/10 00:35:02;;;;;;;10.35;5.78;;;3.20;99.90;;;;;;5091056;28;20036;-60
2022/01/10 00:38:27;;;;;;;9.93;5.90;;;3.20;99.90;;;;;;5102585;28;20256;-60
2022/01/10 00:41:55;;;;;;;11.13;5.82;;;3.10;99.90;;;;;;5090289;28;20036;-60
2022/01/10 00:45:23;;;;;;;12.98;6.35;;;3.20;99.90;;;;;;5088008;28;20502;-72
2022/01/10 00:48:43;;;;;;;10.80;5.35;;;3.20;99.90;;;;;;5101919;28;20039;-71
2022/01/10 00:52:08;;;;;;;11.00;6.07;;;3.30;99.90;;;;;;5089967;28;20483;-55
2022/01/10 00:55:34;;;;;;;11.20;6.57;;;3.30;99.90;;;;;;5093006;28;20043;-55
2022/01/10 00:58:59;;;;;;;10.07;5.78;;;3.30;99.90;;;;;;5105086;28;20076;-55
2022/01/10 01:02:27;;;;;;;18.20;8.07;;;3.30;99.90;;;;;;5089633;28;20376;-51
2022/01/10 01:05:50;;;;;;;10.80;6.20;;;3.20;99.90;;;;;;5103417;28;20043;-53
2022/01/10 01:09:17;;;;;;;14.25;7.03;;;3.20;99.90;;;;;;5092911;28;20111;-56
2022/01/10 01:13:01;;;;;;;11.35;6.53;;;3.20;99.90;;;;;;5105980;28;20031;-56
2022/01/10 01:26:26;;;;;;;12.30;5.72;;;3.30;99.90;;;;;;5107327;28;20058;-51
2022/01/10 01:29:55;;;;;;;11.60;5.78;;;3.40;99.90;;;;;;5093169;28;20615;-56
2022/01/10 01:33:00;;;;;;;;;;;3.40;99.90;;;;;;5102253;28;20116;-51
2022/01/10 01:36:26;;;;;;;9.90;5.88;;;3.40;99.90;;;;;;5090734;28;19912;-54
2022/01/10 01:39:51;;;;;;;10.38;5.45;;;3.40;99.90;;;;;;5092934;28;20039;-53
2022/01/10 01:43:16;;;;;;;10.27;5.30;;;3.40;99.90;;;;;;5093044;28;20119;-51
2022/01/10 01:46:42;;;;;;;10.60;5.70;;;3.40;99.90;;;;;;5088411;28;20036;-53
2022/01/10 01:50:07;;;;;;;14.70;5.45;;;3.40;99.90;;;;;;5092598;28;20036;-54
2022/01/10 01:53:32;;;;;;;10.93;5.75;;;3.40;99.90;;;;;;5103393;28;20510;-51
2022/01/10 01:56:58;;;;;;;11.15;5.93;;;3.40;99.90;;;;;;5088680;28;20082;-55
2022/01/10 02:00:23;;;;;;;12.07;6.20;;;3.40;99.90;;;;;;5090088;28;20040;-53
2022/01/10 02:03:48;;;;;;;9.45;5.47;;;3.40;99.90;;;;;;5103082;28;20067;-53
2022/01/10 02:07:14;;;;;;;12.05;6.32;;;3.40;99.90;;;;;;5103156;28;20410;-55
2022/01/10 02:10:39;;;;;;;7.65;4.38;;;3.40;99.90;;;;;;5090698;28;20097;-52
2022/01/10 02:14:04;;;;;;;12.45;6.70;;;3.50;99.90;;;;;;5101056;28;20059;-53
2022/01/10 02:17:35;;;;;;;9.60;5.50;;;3.50;99.90;;;;;;5093814;28;20407;-53
2022/01/10 02:21:00;;;;;;;9.57;5.20;;;3.40;99.90;;;;;;5086518;28;20020;-53
2022/01/10 02:24:24;;;;;;;9.35;5.32;;;3.40;99.90;;;;;;5100602;28;20051;-53
2022/01/10 02:27:49;;;;;;;10.55;5.47;;;3.40;99.90;;;;;;5093792;28;20044;-53
2022/01/10 02:31:14;;;;;;;7.68;4.72;;;3.40;99.90;;;;;;5106677;28;21068;-54
2022/01/10 02:34:39;;;;;;;9.75;5.75;;;3.50;99.90;;;;;;5086358;28;20047;-59
2022/01/10 02:37:43;;;;;;;12.30;6.43;;;3.40;99.90;;;;;;5088028;28;20047;-52
2022/01/10 02:40:50;;;;;;;10.27;5.63;;;3.50;99.90;;;;;;5101194;28;20494;-47
2022/01/10 02:44:14;;;;;;;14.27;6.60;;;3.40;99.90;;;;;;5098264;28;20035;-48
2022/01/10 02:47:40;;;;;;;9.90;5.70;;;3.40;99.90;;;;;;5094766;28;20068;-48
2022/01/10 02:51:05;;;;;;;13.20;6.50;;;3.50;99.90;;;;;;5089985;28;20047;-47
2022/01/10 02:54:30;;;;;;;8.10;4.47;;;3.50;99.90;;;;;;5104653;28;20035;-47
2022/01/10 02:57:55;;;;;;;11.85;5.78;;;3.50;99.90;;;;;;5092418;28;20043;-46
2022/01/10 03:01:21;;;;;;;8.50;4.80;;;3.50;99.90;;;;;;5089825;28;20059;-47
2022/01/10 03:04:46;;;;;;;11.68;5.97;;;3.50;99.90;;;;;;5108489;28;20106;-52
2022/01/10 03:08:11;;;;;;;9.52;4.97;;;3.50;99.90;;;;;;5091664;28;20043;-51
2022/01/10 03:11:37;;;;;;;13.63;6.63;;;3.50;99.90;;;;;;5108771;28;20040;-48
2022/01/10 03:15:02;;;;;;;13.68;6.10;;;3.50;99.90;;;;;;5095978;28;20079;-47
2022/01/10 03:18:27;;;;;;;14.80;6.78;;;3.60;99.90;;;;;;5106140;28;20031;-47
2022/01/10 03:21:53;;;;;;;12.23;6.50;;;3.60;99.90;;;;;;5109090;28;20024;-46
2022/01/10 03:25:19;;;;;;;9.90;5.55;;;3.60;99.90;;;;;;5093612;28;20086;-46
2022/01/10 03:28:43;;;;;;;15.02;6.88;;;3.60;99.90;;;;;;5100277;28;20195;-49
2022/01/10 03:32:11;;;;;;;10.05;5.45;;;3.60;99.90;;;;;;5090950;28;20515;-48
2022/01/10 03:35:34;;;;;;;9.05;4.90;;;3.60;99.90;;;;;;5091001;28;20036;-46
2022/01/10 03:38:59;;;;;;;9.93;5.72;;;3.60;99.90;;;;;;5105587;28;20032;-51
2022/01/10 03:42:25;;;;;;;13.40;6.65;;;3.60;99.90;;;;;;5095393;28;20525;-54
2022/01/10 03:45:51;;;;;;;9.15;5.28;;;3.60;99.90;;;;;;5104197;28;20040;-50
2022/01/10 03:49:16;;;;;;;11.30;6.28;;;3.60;99.90;;;;;;5107470;28;20036;-47
2022/01/10 03:52:42;;;;;;;14.35;6.35;;;3.60;99.90;;;;;;5093205;28;20471;-47
2022/01/10 03:56:06;;;;;;;10.00;5.63;;;3.60;99.90;;;;;;5088435;28;20047;-48
2022/01/10 03:59:32;;;;;;;10.70;6.15;;;3.60;99.90;;;;;;5107235;28;20036;-49
2022/01/10 04:03:03;;;;;;;14.43;6.90;;;3.60;99.90;;;;;;5090615;28;20039;-50
2022/01/10 04:06:22;;;;;;;13.13;6.32;;;3.60;99.90;;;;;;5088278;28;20140;-48
2022/01/10 04:09:48;;;;;;;11.25;5.25;;;3.60;99.90;;;;;;5105937;28;20417;-46
2022/01/10 04:13:13;;;;;;;13.70;6.18;;;3.70;99.90;;;;;;5090642;28;20039;-46
2022/01/10 04:16:39;;;;;;;16.42;6.53;;;3.60;99.90;;;;;;5105282;28;20064;-53
2022/01/10 04:20:04;;;;;;;12.15;5.75;;;3.60;99.90;;;;;;5094186;28;20028;-46
2022/01/10 04:23:30;;;;;;;15.75;6.70;;;3.70;99.90;;;;;;5105069;28;20036;-47
2022/01/10 04:26:55;;;;;;;14.32;6.20;;;3.70;99.90;;;;;;5104840;28;20040;-49
2022/01/10 04:30:20;;;;;;;16.70;6.70;;;3.70;99.90;;;;;;5088320;28;20067;-48
2022/01/10 04:33:45;;;;;;;16.55;6.65;;;3.70;99.90;;;;;;5090014;28;20556;-50
2022/01/10 04:37:11;;;;;;;12.70;6.10;;;3.70;99.90;;;;;;5090026;28;20032;-51
2022/01/10 04:40:36;;;;;;;19.95;8.05;;;3.60;99.90;;;;;;5088161;28;20089;-46
2022/01/10 04:44:01;;;;;;;13.13;6.50;;;3.70;99.90;;;;;;5101265;28;20027;-49
2022/01/10 04:47:27;;;;;;;19.42;6.85;;;3.70;99.90;;;;;;5092350;28;20090;-47
2022/01/10 04:51:11;;;;;;;12.35;5.97;;;3.70;99.90;;;;;;5091089;28;20028;-49
2022/01/10 04:54:26;;;;;;;12.70;6.38;;;3.60;99.90;;;;;;5097287;28;20059;-47
2022/01/10 04:57:52;;;;;;;11.88;6.53;;;3.60;99.90;;;;;;5106883;28;20032;-46
2022/01/10 05:01:17;;;;;;;13.98;7.05;;;3.60;99.90;;;;;;5087614;28;20122;-47
2022/01/10 05:04:43;;;;;;;18.33;5.88;;;3.60;99.90;;;;;;5101749;28;20557;-46
2022/01/10 05:08:09;;;;;;;10.02;5.90;;;3.60;99.90;;;;;;5089233;28;20043;-47
2022/01/10 05:11:36;;;;;;;12.18;6.57;;;3.50;99.90;;;;;;5091670;28;20108;-52
2022/01/10 05:14:59;;;;;;;10.10;5.45;;;3.60;99.90;;;;;;5103627;28;20031;-49
2022/01/10 05:18:24;;;;;;;14.13;6.70;;;3.60;99.90;;;;;;5089417;28;20564;-47
2022/01/10 05:21:49;;;;;;;11.10;5.80;;;3.50;99.90;;;;;;5093190;28;20060;-48
2022/01/10 05:25:15;;;;;;;11.75;5.63;;;3.60;99.90;;;;;;5107627;28;20322;-47
2022/01/10 05:28:40;;;;;;;15.60;5.93;;;3.60;99.90;;;;;;5094446;28;20407;-48
2022/01/10 05:32:05;;;;;;;16.15;6.13;;;3.60;99.90;;;;;;5087123;28;20036;-49
2022/01/10 05:35:31;;;;;;;20.45;7.32;;;3.60;99.90;;;;;;5101414;28;20518;-47
2022/01/10 05:38:56;;;;;;;12.98;5.78;;;3.70;99.90;;;;;;5089241;28;20040;-50
2022/01/10 05:42:22;;;;;;;18.30;7.10;;;3.70;99.90;;;;;;5087642;28;20243;-53
2022/01/10 05:45:47;;;;;;;19.02;7.55;;;3.80;99.90;;;;;;5095115;28;20028;-48
2022/01/10 05:49:13;;;;;;;14.25;6.05;;;3.80;99.90;;;;;;5090650;28;20119;-49
2022/01/10 05:52:38;;;;;;;14.68;5.57;;;3.70;99.90;;;;;;5095537;28;20036;-53
2022/01/10 05:56:03;;;;;;;16.65;7.88;;;3.70;99.90;;;;;;5103300;28;20030;-49
2022/01/10 05:59:28;;;;;;;16.90;7.45;;;3.70;99.90;;;;;;5103116;28;20388;-49
2022/01/10 06:02:54;;;;;;;13.57;6.03;;;3.70;99.90;;;;;;5089256;28;20043;-46
2022/01/10 06:06:19;;;;;;;18.58;7.22;;;3.70;99.90;;;;;;5104854;28;20083;-47
2022/01/10 06:09:44;;;;;;;16.58;6.57;;;3.60;99.90;;;;;;5088896;28;20044;-47
2022/01/10 06:13:10;;;;;;;11.07;6.40;;;3.60;99.90;;;;;;5087208;28;20046;-51
2022/01/10 06:16:35;;;;;;;19.45;7.50;;;3.60;99.90;;;;;;5101067;28;20403;-49
2022/01/10 06:20:01;;;;;;;14.93;8.23;;;3.60;99.90;;;;;;5091799;28;20067;-48
2022/01/10 06:23:26;;;;;;;12.93;7.25;;;3.60;99.90;;;;;;5089801;28;20040;-53
2022/01/10 06:26:51;;;;;;;12.52;6.93;;;3.60;99.90;;;;;;5102775;28;20130;-46
2022/01/10 06:30:17;;;;;;;18.27;7.63;;;3.60;99.90;;;;;;5109363;28;20579;-45
2022/01/10 06:33:42;;;;;;;15.77;6.95;;;3.60;99.90;;;;;;5108592;28;20039;-47
2022/01/10 06:37:07;;;;;;;13.23;7.43;;;3.60;99.90;;;;;;5089496;28;20054;-46
2022/01/10 06:40:33;;;;;;;14.80;7.15;;;3.70;99.90;;;;;;5101899;28;20062;-47
2022/01/10 06:43:58;;;;;;;13.55;7.57;;;3.70;99.90;;;;;;5103167;28;20061;-49
2022/01/10 06:47:23;;;;;;;20.45;8.00;;;3.70;99.90;;;;;;5089048;28;20523;-47
2022/01/10 06:50:49;;;;;;;17.92;7.28;;;3.70;99.90;;;;;;5103554;28;20077;-47
2022/01/10 06:54:14;;;;;;;14.95;7.32;;;3.70;99.90;;;;;;5090807;28;20032;-46
2022/01/10 06:57:39;;;;;;;16.40;7.68;;;3.70;99.90;;;;;;5088998;28;20032;-46
2022/01/10 07:01:05;;;;;;;22.73;8.25;;;3.70;99.90;;;;;;5103001;28;20058;-48
2022/01/10 07:04:30;;;;;;;33.60;13.52;;;3.70;99.90;;;;;;5090499;28;20483;-47
2022/01/10 07:07:56;;;;;;;17.13;8.20;;;3.80;99.90;;;;;;5107961;28;20063;-48
2022/01/10 07:11:21;;;;;;;17.00;8.77;;;3.80;99.90;;;;;;5108090;28;20039;-47
2022/01/10 07:14:46;;;;;;;22.95;9.13;;;3.70;99.90;;;;;;5105048;28;20039;-48
2022/01/10 07:18:12;;;;;;;14.52;7.93;;;3.70;99.90;;;;;;5104150;28;20039;-49
2022/01/10 07:21:39;;;;;;;17.30;8.05;;;3.70;99.90;;;;;;5095917;28;20032;-50
2022/01/10 07:25:02;;;;;;;20.88;8.68;;;3.70;99.90;;;;;;5108398;28;20057;-49
2022/01/10 07:28:28;;;;;;;18.83;8.73;;;3.70;99.90;;;;;;5102523;28;20052;-47
2022/01/10 07:31:53;;;;;;;17.42;8.50;;;3.80;99.90;;;;;;5088206;28;20039;-51
2022/01/10 07:35:18;;;;;;;19.58;8.73;;;3.80;99.90;;;;;;5107730;28;20031;-47
2022/01/10 07:38:44;;;;;;;23.17;8.80;;;3.80;99.90;;;;;;5108587;28;20083;-48
2022/01/10 07:42:09;;;;;;;40.95;8.82;;;3.80;99.90;;;;;;5087971;28;20040;-48
2022/01/10 07:45:34;;;;;;;18.48;8.60;;;3.80;99.90;;;;;;5088110;28;20040;-48
2022/01/10 07:49:00;;;;;;;21.00;9.70;;;3.80;99.90;;;;;;5109286;28;20024;-47
2022/01/10 07:52:26;;;;;;;17.38;7.20;;;3.90;99.90;;;;;;5087935;28;20080;-50
2022/01/10 07:55:51;;;;;;;16.33;6.93;;;3.90;99.90;;;;;;5102334;28;20557;-50
2022/01/10 07:59:16;;;;;;;13.98;6.75;;;4.00;99.90;;;;;;5089652;28;20036;-48
2022/01/10 08:02:41;;;;;;;15.73;8.48;;;4.00;99.90;;;;;;5087700;28;20123;-48
2022/01/10 08:06:07;;;;;;;14.38;7.28;;;4.00;99.90;;;;;;5101725;28;20066;-45
2022/01/10 08:09:32;;;;;;;21.65;8.77;;;4.00;99.90;;;;;;5089720;28;20502;-50
2022/01/10 08:12:58;;;;;;;25.75;10.40;;;3.90;99.90;;;;;;5106843;28;20028;-46
2022/01/10 08:16:23;;;;;;;27.73;11.45;;;3.90;99.90;;;;;;5106590;28;20423;-45
2022/01/10 08:19:08;;;;;;;23.33;10.80;;;3.90;99.90;;;;;;5091413;28;20032;-46
2022/01/10 08:21:34;;;;;;;26.17;10.27;;;3.90;99.90;;;;;;5109902;28;20454;-46
2022/01/10 08:24:39;;;;;;;22.13;10.43;;;3.80;99.90;;;;;;5099353;28;20036;-44
2022/01/10 08:28:05;;;;;;;27.65;11.32;;;3.80;99.90;;;;;;5102698;28;20096;-45
2022/01/10 08:31:30;;;;;;;26.77;10.48;;;3.80;99.90;;;;;;5109626;28;20043;-45
2022/01/10 08:34:56;;;;;;;22.00;10.55;;;3.70;99.90;;;;;;5089853;28;20380;-45
2022/01/10 08:37:41;;;;;;;32.72;13.00;;;3.60;99.90;;;;;;5089805;28;20032;-63
2022/01/10 08:40:07;;;;;;;25.23;10.95;;;3.60;99.90;;;;;;5087479;28;20024;-58
2022/01/10 08:42:32;;;;;;;28.27;12.85;;;3.60;99.90;;;;;;5095753;28;20036;-60
2022/01/10 08:44:58;;;;;;;31.08;10.80;;;3.70;99.90;;;;;;5089073;28;20047;-60
2022/01/10 08:47:26;;;;;;;35.17;15.23;;;3.70;99.90;;;;;;5109030;28;20488;-59
2022/01/10 08:49:51;;;;;;;31.02;13.18;;;3.70;99.90;;;;;;5088277;28;20032;-60
2022/01/10 08:52:17;;;;;;;40.05;15.65;;;3.60;99.90;;;;;;5109247;28;20407;-46
2022/01/10 08:54:42;;;;;;;30.45;13.98;;;3.70;99.90;;;;;;5088287;28;20024;-46
2022/01/10 08:57:08;;;;;;;35.92;14.23;;;3.60;99.90;;;;;;5109085;28;20032;-46
2022/01/10 08:59:34;;;;;;;35.67;15.02;;;3.60;99.90;;;;;;5088334;28;20024;-45
2022/01/10 09:01:59;;;;;;;43.22;16.30;;;3.60;99.90;;;;;;5109189;28;20495;-45
2022/01/10 09:04:25;;;;;;;37.35;16.15;;;3.60;99.90;;;;;;5087783;28;20035;-51
2022/01/10 09:06:53;;;;;;;34.20;13.57;;;3.60;99.90;;;;;;5109129;28;20503;-46
2022/01/10 09:09:19;;;;;;;38.95;15.43;;;3.60;99.90;;;;;;5087757;28;20139;-45
2022/01/10 09:11:45;;;;;;;41.17;16.52;;;3.60;99.90;;;;;;5108651;28;20036;-45
2022/01/10 09:14:13;;;;;;;41.67;15.85;;;3.60;99.90;;;;;;5087778;28;20483;-45
2022/01/10 09:16:40;;;;;;;42.90;18.02;;;3.60;99.90;;;;;;5109122;28;20084;-46
2022/01/10 09:19:06;;;;;;;41.40;16.63;;;3.60;99.90;;;;;;5098715;28;20024;-45
2022/01/10 09:21:31;;;;;;;45.78;16.88;;;3.60;99.90;;;;;;5089458;28;20085;-45
2022/01/10 09:23:57;;;;;;;42.83;17.17;;;3.70;99.90;;;;;;5106706;28;20116;-47
2022/01/10 09:26:23;;;;;;;39.10;15.45;;;3.70;99.90;;;;;;5089190;28;20353;-46
2022/01/10 09:28:48;;;;;;;39.78;16.38;;;3.80;99.90;;;;;;5106411;28;20074;-46
2022/01/10 09:31:15;;;;;;;52.88;19.10;;;3.80;99.90;;;;;;5089386;28;20039;-46
2022/01/10 09:33:42;;;;;;;38.42;16.42;;;3.70;99.90;;;;;;5106532;28;20024;-46
2022/01/10 09:36:08;;;;;;;61.70;20.10;;;3.80;99.90;;;;;;5089038;28;20035;-46
2022/01/10 09:38:33;;;;;;;48.58;17.17;;;3.80;99.90;;;;;;5106416;28;20020;-50
2022/01/10 09:40:59;;;;;;;47.92;19.33;;;3.80;99.90;;;;;;5109252;28;20027;-47
2022/01/10 09:43:25;;;;;;;47.58;17.35;;;3.80;99.90;;;;;;5088671;28;20019;-47
2022/01/10 09:45:56;;;;;;;48.72;18.15;;;3.80;99.90;;;;;;5109012;28;20042;-46
2022/01/10 09:48:22;;;;;;;49.78;19.60;;;3.80;99.90;;;;;;5086694;28;20019;-47
2022/01/10 09:50:48;;;;;;;44.97;16.50;;;3.80;99.90;;;;;;5088559;28;20056;-46
2022/01/10 09:53:17;;;;;;;47.92;18.45;;;3.80;99.90;;;;;;5106310;28;20047;-48
2022/01/10 09:55:43;;;;;;;55.70;19.35;;;3.70;99.90;;;;;;5108772;28;20442;-49
2022/01/10 09:58:09;;;;;;;47.70;20.70;;;3.70;99.90;;;;;;5090328;28;20043;-47
2022/01/10 10:00:35;;;;;;;43.58;18.08;;;3.60;99.90;;;;;;5109017;28;20039;-46
2022/01/10 10:03:00;;;;;;;42.05;18.17;;;3.60;99.90;;;;;;5089200;28;20028;-46
2022/01/10 10:05:26;;;;;;;57.55;21.25;;;3.60;99.90;;;;;;5108697;28;20451;-45
2022/01/10 10:07:52;;;;;;;42.22;17.92;;;3.60;99.90;;;;;;5088025;28;20103;-47
2022/01/10 10:10:18;;;;;;;56.60;19.20;;;3.60;99.90;;;;;;5108852;28;20796;-46
2022/01/10 10:12:49;;;;;;;46.28;18.33;;;3.60;99.90;;;;;;5088714;28;20028;-46
2022/01/10 10:15:17;;;;;;;45.58;18.90;;;3.60;99.90;;;;;;5088516;28;20080;-45
2022/01/10 10:17:44;;;;;;;45.58;19.20;;;3.70;99.90;;;;;;5088275;28;20036;-45
2022/01/10 10:20:15;;;;;;;44.70;18.50;;;3.70;99.90;;;;;;5086625;28;20525;-45
2022/01/10 10:22:43;;;;;;;54.75;22.20;;;3.70;99.90;;;;;;5088408;28;20036;-50
2022/01/10 10:25:09;;;;;;;48.60;20.33;;;3.70;99.90;;;;;;5086295;28;20120;-49
2022/01/10 10:27:37;;;;;;;47.92;19.08;;;3.70;99.90;;;;;;5105005;28;20485;-46
2022/01/10 10:30:06;;;;;;;59.53;24.88;;;3.60;99.90;;;;;;5086354;28;20399;-48
2022/01/10 10:32:32;;;;;;;49.80;23.13;;;3.70;99.90;;;;;;5108189;28;20028;-49
2022/01/10 10:34:58;;;;;;;51.50;22.42;;;3.80;99.90;;;;;;5087056;28;20495;-46
2022/01/10 10:37:25;;;;;;;49.38;23.38;;;3.90;99.90;;;;;;5107694;28;20065;-47
2022/01/10 10:39:51;;;;;;;59.47;25.20;;;3.90;99.90;;;;;;5086758;28;20024;-46
2022/01/10 10:42:17;;;;;;;52.78;26.02;;;4.00;99.90;;;;;;5092643;28;20081;-49
2022/01/10 10:44:43;;;;;;;58.88;25.25;;;4.00;99.90;;;;;;5102598;28;20020;-46
2022/01/10 10:47:14;;;;;;;61.15;27.30;;;4.00;99.90;;;;;;5088379;28;20373;-45
2022/01/10 10:49:45;;;;;;;65.68;28.05;;;4.10;99.90;;;;;;5090547;28;20024;-45
2022/01/10 10:52:11;;;;;;;57.38;28.02;;;4.10;99.90;;;;;;5088084;28;20411;-45
2022/01/10 10:54:38;;;;;;;54.08;26.75;;;4.20;99.90;;;;;;5090244;28;20475;-45
2022/01/10 10:57:06;;;;;;;54.10;26.10;;;4.10;99.90;;;;;;5107645;28;20206;-45
2022/01/10 10:59:35;;;;;;;57.47;27.17;;;4.00;99.90;;;;;;5086342;28;20028;-46
2022/01/10 11:02:02;;;;;;;60.17;27.30;;;4.10;99.90;;;;;;5108040;28;20076;-46
2022/01/10 11:04:30;;;;;;;70.78;32.40;;;4.10;99.90;;;;;;5088136;28;20040;-47
2022/01/10 11:06:56;;;;;;;59.83;27.10;;;4.10;99.90;;;;;;5111676;28;20039;-44
2022/01/10 11:09:22;;;;;;;71.63;28.48;;;4.20;99.90;;;;;;5089939;28;20024;-45
2022/01/10 11:11:48;;;;;;;55.00;24.95;;;4.10;99.90;;;;;;5111337;28;20520;-46
2022/01/10 11:14:16;;;;;;;48.92;23.77;;;4.20;99.90;;;;;;5090184;28;20063;-50
2022/01/10 11:16:44;;;;;;;53.85;26.45;;;4.20;99.90;;;;;;5111341;28;20038;-48
2022/01/10 11:19:15;;;;;;;53.67;24.55;;;4.10;99.90;;;;;;5088665;28;20028;-45
2022/01/10 11:21:45;;;;;;;56.83;27.75;;;4.20;99.90;;;;;;5111179;28;20110;-45
2022/01/10 11:24:11;;;;;;;53.72;24.77;;;4.00;99.90;;;;;;5089551;28;20085;-45
2022/01/10 11:26:38;;;;;;;50.90;25.17;;;4.00;99.90;;;;;;5110964;28;20456;-45
2022/01/10 11:29:07;;;;;;;52.90;23.88;;;3.90;99.90;;;;;;5100320;28;20124;-45
2022/01/10 11:31:36;;;;;;;54.03;24.23;;;3.90;99.90;;;;;;5091293;28;20542;-46
2022/01/10 11:34:01;;;;;;;48.65;21.45;;;3.90;99.90;;;;;;5109328;28;20533;-45
2022/01/10 11:36:29;;;;;;;53.50;22.80;;;4.10;99.90;;;;;;5091610;28;20036;-46
2022/01/10 11:38:55;;;;;;;49.08;20.92;;;4.20;99.90;;;;;;5109446;28;20043;-45
2022/01/10 11:41:24;;;;;;;42.60;20.15;;;4.30;99.90;;;;;;5091350;28;20035;-46
2022/01/10 11:44:12;;;;;;;51.40;23.20;;;4.40;99.90;;;;;;5082320;28;20110;-47
2022/01/10 11:46:42;;;;;;;50.00;23.25;;;4.40;99.90;;;;;;5111198;28;20040;-45
2022/01/10 11:49:17;;;;;;;60.25;24.35;;;4.40;99.90;;;;;;5089013;28;20055;-46
2022/01/10 11:51:49;;;;;;;54.08;27.63;;;4.40;99.90;;;;;;5090629;28;20581;-46
2022/01/10 11:54:38;;;;;;;58.85;28.42;;;4.50;99.90;;;;;;5095980;28;20123;-45
2022/01/10 11:57:06;;;;;;;42.17;21.85;;;4.80;99.90;;;;;;5090729;28;20024;-44
2022/01/10 11:59:38;;;;;;;55.30;30.33;;;5.00;99.90;;;;;;5094246;28;20036;-45
2022/01/10 12:02:10;;;;;;;59.42;28.75;;;5.00;99.90;;;;;;5090577;28;20024;-45
2022/01/10 12:04:39;;;;;;;68.18;32.90;;;4.90;99.90;;;;;;5104581;28;20265;-45
2022/01/10 12:07:07;;;;;;;69.13;37.17;;;4.90;99.90;;;;;;5090274;28;20042;-47
2022/01/10 12:09:33;;;;;;;73.43;36.47;;;4.70;99.90;;;;;;5093737;28;20028;-45
2022/01/10 12:12:00;;;;;;;62.75;30.77;;;4.60;99.90;;;;;;5110346;28;20024;-46
2022/01/10 12:14:27;;;;;;;69.70;34.17;;;4.50;99.90;;;;;;5088681;28;20380;-45
2022/01/10 12:16:55;;;;;;;70.22;36.15;;;4.40;99.90;;;;;;5109205;28;20027;-45
2022/01/10 12:19:21;;;;;;;82.72;40.20;;;4.30;99.90;;;;;;5088624;28;20046;-47
2022/01/10 12:21:47;;;;;;;87.68;45.53;;;4.20;99.90;;;;;;5109826;28;20019;-46
2022/01/10 12:24:13;;;;;;;85.90;39.25;;;4.10;99.90;;;;;;5088779;28;20441;-46
2022/01/10 12:26:39;;;;;;;78.18;39.22;;;4.10;99.90;;;;;;5109647;28;20126;-46
2022/01/10 12:29:08;;;;;;;70.32;34.03;;;4.00;99.90;;;;;;5099484;28;20415;-46
2022/01/10 12:31:36;;;;;;;70.38;34.53;;;3.90;99.90;;;;;;5090239;28;20039;-46
2022/01/10 12:34:03;;;;;;;87.35;40.03;;;3.90;99.90;;;;;;5107964;28;20223;-47
2022/01/10 12:36:30;;;;;;;74.50;34.95;;;3.90;99.90;;;;;;5090200;28;20446;-47
2022/01/10 12:39:03;;;;;;;72.30;33.50;;;3.90;99.90;;;;;;5095256;28;20040;-48
2022/01/10 12:41:30;;;;;;;89.90;40.22;;;3.90;99.90;;;;;;5110052;28;20100;-57
2022/01/10 12:43:56;;;;;;;76.15;37.38;;;3.80;99.90;;;;;;5081097;28;20031;-59
2022/01/10 12:46:23;;;;;;;73.13;34.47;;;3.60;99.90;;;;;;5109295;28;20039;-59
2022/01/10 12:48:50;;;;;;;78.13;38.35;;;3.70;99.90;;;;;;5088500;28;20484;-59
2022/01/10 12:51:18;;;;;;;78.43;39.17;;;3.60;99.90;;;;;;5109519;28;20059;-59
2022/01/10 12:53:48;;;;;;;89.82;43.15;;;3.50;99.90;;;;;;5098838;28;20252;-61
2022/01/10 12:56:17;;;;;;;85.65;42.30;;;3.50;99.90;;;;;;5089536;28;20036;-61
2022/01/10 12:58:43;;;;;;;83.63;39.25;;;3.50;99.90;;;;;;5107289;28;20495;-61
2022/01/10 13:01:13;;;;;;;75.63;37.13;;;3.50;99.90;;;;;;5090199;28;20098;-60
2022/01/10 13:03:42;;;;;;;77.88;36.88;;;3.50;99.90;;;;;;5087601;28;20539;-61
2022/01/10 13:06:09;;;;;;;83.20;40.15;;;3.50;99.90;;;;;;5109336;28;20063;-60
2022/01/10 13:08:39;;;;;;;88.35;41.25;;;3.40;99.90;;;;;;5097601;28;20020;-60
2022/01/10 13:11:14;;;;;;;97.63;41.83;;;3.40;99.90;;;;;;5089356;28;20042;-59
2022/01/10 13:13:44;;;;;;;81.78;41.38;;;3.40;99.90;;;;;;5102684;28;20032;-60
2022/01/10 13:16:24;;;;;;;86.45;42.70;;;3.40;99.90;;;;;;5088069;28;20510;-59
2022/01/10 13:19:01;;;;;;;85.00;40.20;;;3.30;99.90;;;;;;5088293;28;20101;-60
2022/01/10 13:21:38;;;;;;;78.72;39.83;;;3.30;99.90;;;;;;5086004;28;20074;-59
2022/01/10 13:24:12;;;;;;;91.18;44.83;;;3.20;99.90;;;;;;5088055;28;20024;-61
2022/01/10 13:27:03;;;;;;;113.80;54.22;;;3.10;99.90;;;;;;5085944;28;20495;-61
2022/01/10 13:29:48;;;;;;;108.30;52.70;;;3.10;99.90;;;;;;5087902;28;20052;-62
2022/01/10 13:32:29;;;;;;;108.22;53.20;;;3.00;99.90;;;;;;5086067;28;20055;-59
2022/01/10 13:35:10;;;;;;;115.40;54.60;;;2.90;99.90;;;;;;5088014;28;20040;-59
2022/01/10 13:37:41;;;;;;;106.35;49.22;;;2.90;99.90;;;;;;5090204;28;20024;-59
2022/01/10 13:40:24;;;;;;;115.25;57.53;;;2.80;99.90;;;;;;5108049;28;20038;-57
2022/01/10 13:42:53;;;;;;;120.45;58.53;;;2.70;99.90;;;;;;5081085;28;20495;-60
2022/01/10 13:45:49;;;;;;;113.53;55.08;;;2.70;99.90;;;;;;5097977;28;20024;-60
2022/01/10 13:48:19;;;;;;;115.28;52.33;;;2.60;99.90;;;;;;5102753;28;20104;-60
2022/01/10 13:50:47;;;;;;;100.45;49.65;;;2.60;99.90;;;;;;5093765;28;20023;-60
2022/01/10 13:53:15;;;;;;;97.18;46.88;;;2.50;99.90;;;;;;5087686;28;20025;-59
2022/01/10 13:55:44;;;;;;;112.32;57.85;;;2.50;99.90;;;;;;5085531;28;20024;-60
2022/01/10 13:58:28;;;;;;;101.82;53.22;;;2.50;99.90;;;;;;5087507;28;20600;-59
2022/01/10 14:00:56;;;;;;;110.15;53.28;;;2.40;99.90;;;;;;5085755;28;20119;-59
2022/01/10 14:03:24;;;;;;;101.65;52.58;;;2.30;99.90;;;;;;5107501;28;20032;-60
2022/01/10 14:06:08;;;;;;;112.93;53.25;;;2.30;99.90;;;;;;5095452;28;20035;-60
2022/01/10 14:08:36;;;;;;;104.50;51.80;;;2.30;99.90;;;;;;5087266;28;20020;-60
2022/01/10 14:11:01;;;;;;;104.38;50.95;;;2.20;99.90;;;;;;5105237;28;20019;-59
2022/01/10 14:13:28;;;;;;;100.72;48.50;;;2.20;99.90;;;;;;5087931;28;20028;-59
2022/01/10 14:15:54;;;;;;;97.68;50.45;;;2.10;99.90;;;;;;5105510;28;20024;-59
2022/01/10 14:18:20;;;;;;;89.72;45.30;;;2.10;99.90;;;;;;5087942;28;20548;-60
2022/01/10 14:20:45;;;;;;;94.72;48.22;;;2.10;99.90;;;;;;5095330;28;20467;-59
2022/01/10 14:23:11;;;;;;;99.88;49.88;;;2.10;99.90;;;;;;5107079;28;20020;-59
2022/01/10 14:25:37;;;;;;;98.32;47.85;;;2.10;99.90;;;;;;5093755;28;20042;-60
2022/01/10 14:28:03;;;;;;;90.25;46.03;;;2.10;99.90;;;;;;5100640;28;20527;-60
2022/01/10 14:30:29;;;;;;;94.28;46.75;;;2.10;99.90;;;;;;5092000;28;20027;-60
2022/01/10 14:32:54;;;;;;;94.97;46.88;;;2.10;99.90;;;;;;5107991;28;20031;-60
2022/01/10 14:35:20;;;;;;;104.43;52.10;;;2.10;99.90;;;;;;5091111;28;20060;-59
2022/01/10 14:37:45;;;;;;;87.18;44.88;;;2.10;99.90;;;;;;5107779;28;20036;-60
2022/01/10 14:40:11;;;;;;;88.70;40.65;;;2.10;99.90;;;;;;5093254;28;20040;-49
2022/01/10 14:42:39;;;;;;;86.15;44.67;;;2.10;99.90;;;;;;5093123;28;20035;-45
2022/01/10 14:45:06;;;;;;;90.22;43.70;;;2.10;99.90;;;;;;5109137;28;20027;-47
2022/01/10 14:47:32;;;;;;;82.57;41.20;;;2.00;99.90;;;;;;5111535;28;20039;-48
2022/01/10 14:49:58;;;;;;;82.63;42.50;;;2.10;99.90;;;;;;5092069;28;20107;-46
2022/01/10 14:52:23;;;;;;;86.20;42.95;;;2.00;99.90;;;;;;5111527;28;20092;-48
2022/01/10 14:54:49;;;;;;;93.38;45.58;;;2.00;99.90;;;;;;5090594;28;20046;-49
2022/01/10 14:57:14;;;;;;;89.93;45.38;;;2.00;99.90;;;;;;5111523;28;20023;-48
2022/01/10 14:59:40;;;;;;;93.93;44.17;;;1.90;99.90;;;;;;5091655;28;20027;-45
2022/01/10 15:02:05;;;;;;;88.78;44.08;;;1.90;99.90;;;;;;5109273;28;20039;-45
2022/01/10 15:05:11;;;;;;;76.50;39.20;;;1.90;99.90;;;;;;5091316;28;20060;-46
2022/01/10 15:08:38;;;;;;;78.40;39.22;;;1.80;99.90;;;;;;5094764;28;20459;-47
2022/01/10 15:12:02;;;;;;;91.43;44.38;;;1.80;99.90;;;;;;5104722;28;20036;-50
2022/01/10 15:15:27;;;;;;;83.63;39.75;;;1.80;99.90;;;;;;5091034;28;20487;-48
2022/01/10 15:18:52;;;;;;;95.25;45.15;;;1.80;99.90;;;;;;5089165;28;20126;-47